Oney Z — J8B4719 — position and weather

sailwx.info

Track history (hours):
 
Tides and Currents Weather Stations Pressure Air Temp Water Temp Dewpoint Dewpoint Depression Visibility Wind Speed Wind Dir Waves Ship Positions

Oney Z

Last reported at 2017-Jul-07 04:50 UTC. Time now 2017-Jul-23 02:32 UTC.
Position N 44°40' E 013°32'.
Warning: this ship's position is 15 days out of date.

Length 79 m; draft 2.5 m.

Type: Cargo ship. MMSI: 376099000.

Date/timePositionNaut miles runAvg speedWind from/ knotsBaromVisibWave heightAir tempDewpointWater temp
2017-Jul-07 04:50N 44°40' E 013°32'2 6.9
2017-Jul-07 04:30N 44°42' E 013°30'30 7.3
2017-Jul-07 00:20N 45°08' E 013°06'3 7.8
2017-Jul-06 23:58N 45°10' E 013°05'4 8.0
2017-Jul-06 23:30N 45°14' E 013°04'4 7.7
2017-Jul-06 22:58N 45°18' E 013°03'36 0.9
2017-Jul-05 08:17N 45°44' E 013°38'0 0.0
2017-Jul-05 07:59N 45°44' E 013°38'0 0.0
2017-Jul-05 07:23N 45°44' E 013°38'0 0.0
2017-Jul-05 06:59N 45°44' E 013°38'0 0.0
2017-Jul-05 06:23N 45°44' E 013°38'0 0.0
2017-Jul-05 05:44N 45°44' E 013°38'0 0.0
2017-Jul-05 05:23N 45°44' E 013°38'0 0.0
2017-Jul-05 04:59N 45°44' E 013°38'0 0.0
2017-Jul-05 04:29N 45°44' E 013°38'0 0.0
2017-Jul-05 03:44N 45°44' E 013°38'0 0.1
2017-Jul-05 03:26N 45°44' E 013°38'0 0.0
2017-Jul-05 02:50N 45°44' E 013°38'0 0.0
2017-Jul-05 02:26N 45°44' E 013°38'0 0.0
2017-Jul-05 01:59N 45°44' E 013°38'0 0.0
2017-Jul-05 01:17N 45°44' E 013°38'0 0.1
2017-Jul-05 00:56N 45°44' E 013°38'0 0.0
2017-Jul-05 00:29N 45°44' E 013°38'0 0.0
2017-Jul-04 23:59N 45°44' E 013°38'0 0.0
2017-Jul-04 23:26N 45°44' E 013°38'0 0.0
2017-Jul-04 22:56N 45°44' E 013°38'0 0.0
2017-Jul-04 22:26N 45°44' E 013°38'0 0.0
2017-Jul-04 21:59N 45°44' E 013°38'0 0.0
2017-Jul-04 21:29N 45°44' E 013°38'0 0.0
2017-Jul-04 20:50N 45°44' E 013°38'0 0.0
2017-Jul-04 20:20N 45°44' E 013°38'0 0.0
2017-Jul-04 19:59N 45°44' E 013°38'0 0.0
2017-Jul-04 19:20N 45°44' E 013°38'0 0.0
2017-Jul-04 18:59N 45°44' E 013°38'0 0.0
2017-Jul-04 18:26N 45°44' E 013°38'0 0.0
2017-Jul-04 17:59N 45°44' E 013°38'0 0.0
2017-Jul-04 17:25N 45°44' E 013°38'0 0.0
2017-Jul-04 16:47N 45°44' E 013°38'0 0.0
2017-Jul-04 16:25N 45°44' E 013°38'0 0.0
2017-Jul-04 15:46N 45°44' E 013°38'0 0.0
2017-Jul-04 14:43N 45°44' E 013°38'3 3.6
2017-Jul-04 14:01N 45°42' E 013°38'4 7.4
2017-Jul-04 13:31N 45°38' E 013°36'4 8.2
2017-Jul-04 13:01N 45°35' E 013°32'4 7.7
2017-Jul-04 12:31N 45°33' E 013°28'4 7.3
2017-Jul-04 12:00N 45°31' E 013°24'4 7.3
2017-Jul-04 11:31N 45°29' E 013°19'4 7.6
2017-Jul-04 11:00N 45°26' E 013°16'4 7.6
2017-Jul-04 10:30N 45°22' E 013°13'4 7.7
2017-Jul-04 10:00N 45°18' E 013°13'4 7.8
2017-Jul-04 09:31N 45°15' E 013°13'4 7.7
2017-Jul-04 09:00N 45°11' E 013°13'12 7.4
2017-Jul-04 07:26N 45°01' E 013°05'3 6.9
2017-Jul-04 07:00N 44°58' E 013°03'3 6.8
2017-Jul-04 06:31N 44°55' E 013°01'  
2017-Jun-30 14:29N 38°01' E 015°36'3 6.8
2017-Jun-30 13:59N 38°05' E 015°36'3 6.7
2017-Jun-30 13:28N 38°08' E 015°35'3 6.3
2017-Jun-30 13:00N 38°11' E 015°36'8 5.1
2017-Jun-30 11:30N 38°18' E 015°37'3 6.8
2017-Jun-30 11:00N 38°20' E 015°33'4 7.2
2017-Jun-30 10:31N 38°20' E 015°28'4 7.4
2017-Jun-30 10:00N 38°19' E 015°24'4 7.1
2017-Jun-30 09:30N 38°18' E 015°19'4 7.0
2017-Jun-30 08:59N 38°18' E 015°15'4 6.9
2017-Jun-30 08:28N 38°18' E 015°10'4 7.1
2017-Jun-30 07:58N 38°17' E 015°06'3 7.1
2017-Jun-30 07:30N 38°17' E 015°02'4 7.2
2017-Jun-30 07:00N 38°17' E 014°57'4 7.2
2017-Jun-30 06:30N 38°17' E 014°52'4 7.0
2017-Jun-30 06:00N 38°17' E 014°48'3 6.8
2017-Jun-30 05:30N 38°17' E 014°44'3 6.9
2017-Jun-30 05:00N 38°17' E 014°39'5 7.1
2017-Jun-30 04:18N 38°17' E 014°33'2 7.0
2017-Jun-30 03:59N 38°17' E 014°30'4 6.8
2017-Jun-30 03:24N 38°17' E 014°25'28 6.7
2017-Jun-29 23:09N 38°15' E 013°49'2 6.6
2017-Jun-29 22:53N 38°16' E 013°46'3 6.7
2017-Jun-29 22:27N 38°17' E 013°43'3 6.8
2017-Jun-29 21:57N 38°18' E 013°39'3 6.9
2017-Jun-29 21:31N 38°20' E 013°36'4 7.3
2017-Jun-29 21:00N 38°21' E 013°31'4 7.3
2017-Jun-29 20:30N 38°21' E 013°27'4 7.6
2017-Jun-29 20:01N 38°22' E 013°22'6 7.9
2017-Jun-29 19:15N 38°25' E 013°15'2 7.9
2017-Jun-29 19:00N 38°26' E 013°13'5 7.5
2017-Jun-29 18:20N 38°28' E 013°07'19 7.3
2017-Jun-29 15:44N 38°35' E 012°44'2 7.5
2017-Jun-29 15:27N 38°36' E 012°42'3 7.6
2017-Jun-29 15:01N 38°37' E 012°38'4 7.5
2017-Jun-29 14:31N 38°39' E 012°34'  
Track history (hours):
 
Tides and Currents Weather Stations Pressure Air Temp Water Temp Dewpoint Dewpoint Depression Visibility Wind Speed Wind Dir Waves Ship Positions

Oney Z

Last reported at 2017-Jul-07 04:50 UTC. Time now 2017-Jul-23 02:32 UTC.
Position N 44°40' E 013°32'.
Warning: this ship's position is 15 days out of date.

Length 79 m; draft 2.5 m.

Type: Cargo ship. MMSI: 376099000.

Date/timePositionNaut miles runAvg speedWind from/ knotsBaromVisibWave heightAir tempDewpointWater temp
2017-Jul-07 04:50N 44°40' E 013°32'2 6.9
2017-Jul-07 04:30N 44°42' E 013°30'30 7.3
2017-Jul-07 00:20N 45°08' E 013°06'3 7.8
2017-Jul-06 23:58N 45°10' E 013°05'4 8.0
2017-Jul-06 23:30N 45°14' E 013°04'4 7.7
2017-Jul-06 22:58N 45°18' E 013°03'36 0.9
2017-Jul-05 08:17N 45°44' E 013°38'0 0.0
2017-Jul-05 07:59N 45°44' E 013°38'0 0.0
2017-Jul-05 07:23N 45°44' E 013°38'0 0.0
2017-Jul-05 06:59N 45°44' E 013°38'0 0.0
2017-Jul-05 06:23N 45°44' E 013°38'0 0.0
2017-Jul-05 05:44N 45°44' E 013°38'0 0.0
2017-Jul-05 05:23N 45°44' E 013°38'0 0.0
2017-Jul-05 04:59N 45°44' E 013°38'0 0.0
2017-Jul-05 04:29N 45°44' E 013°38'0 0.0
2017-Jul-05 03:44N 45°44' E 013°38'0 0.1
2017-Jul-05 03:26N 45°44' E 013°38'0 0.0
2017-Jul-05 02:50N 45°44' E 013°38'0 0.0
2017-Jul-05 02:26N 45°44' E 013°38'0 0.0
2017-Jul-05 01:59N 45°44' E 013°38'0 0.0
2017-Jul-05 01:17N 45°44' E 013°38'0 0.1
2017-Jul-05 00:56N 45°44' E 013°38'0 0.0
2017-Jul-05 00:29N 45°44' E 013°38'0 0.0
2017-Jul-04 23:59N 45°44' E 013°38'0 0.0
2017-Jul-04 23:26N 45°44' E 013°38'0 0.0
2017-Jul-04 22:56N 45°44' E 013°38'0 0.0
2017-Jul-04 22:26N 45°44' E 013°38'0 0.0
2017-Jul-04 21:59N 45°44' E 013°38'0 0.0
2017-Jul-04 21:29N 45°44' E 013°38'0 0.0
2017-Jul-04 20:50N 45°44' E 013°38'0 0.0
2017-Jul-04 20:20N 45°44' E 013°38'0 0.0
2017-Jul-04 19:59N 45°44' E 013°38'0 0.0
2017-Jul-04 19:20N 45°44' E 013°38'0 0.0
2017-Jul-04 18:59N 45°44' E 013°38'0 0.0
2017-Jul-04 18:26N 45°44' E 013°38'0 0.0
2017-Jul-04 17:59N 45°44' E 013°38'0 0.0
2017-Jul-04 17:25N 45°44' E 013°38'0 0.0
2017-Jul-04 16:47N 45°44' E 013°38'0 0.0
2017-Jul-04 16:25N 45°44' E 013°38'0 0.0
2017-Jul-04 15:46N 45°44' E 013°38'0 0.0
2017-Jul-04 14:43N 45°44' E 013°38'3 3.6
2017-Jul-04 14:01N 45°42' E 013°38'4 7.4
2017-Jul-04 13:31N 45°38' E 013°36'4 8.2
2017-Jul-04 13:01N 45°35' E 013°32'4 7.7
2017-Jul-04 12:31N 45°33' E 013°28'4 7.3
2017-Jul-04 12:00N 45°31' E 013°24'4 7.3
2017-Jul-04 11:31N 45°29' E 013°19'4 7.6
2017-Jul-04 11:00N 45°26' E 013°16'4 7.6
2017-Jul-04 10:30N 45°22' E 013°13'4 7.7
2017-Jul-04 10:00N 45°18' E 013°13'4 7.8
2017-Jul-04 09:31N 45°15' E 013°13'4 7.7
2017-Jul-04 09:00N 45°11' E 013°13'12 7.4
2017-Jul-04 07:26N 45°01' E 013°05'3 6.9
2017-Jul-04 07:00N 44°58' E 013°03'3 6.8
2017-Jul-04 06:31N 44°55' E 013°01'  
2017-Jun-30 14:29N 38°01' E 015°36'3 6.8
2017-Jun-30 13:59N 38°05' E 015°36'3 6.7
2017-Jun-30 13:28N 38°08' E 015°35'3 6.3
2017-Jun-30 13:00N 38°11' E 015°36'8 5.1
2017-Jun-30 11:30N 38°18' E 015°37'3 6.8
2017-Jun-30 11:00N 38°20' E 015°33'4 7.2
2017-Jun-30 10:31N 38°20' E 015°28'4 7.4
2017-Jun-30 10:00N 38°19' E 015°24'4 7.1
2017-Jun-30 09:30N 38°18' E 015°19'4 7.0
2017-Jun-30 08:59N 38°18' E 015°15'4 6.9
2017-Jun-30 08:28N 38°18' E 015°10'4 7.1
2017-Jun-30 07:58N 38°17' E 015°06'3 7.1
2017-Jun-30 07:30N 38°17' E 015°02'4 7.2
2017-Jun-30 07:00N 38°17' E 014°57'4 7.2
2017-Jun-30 06:30N 38°17' E 014°52'4 7.0
2017-Jun-30 06:00N 38°17' E 014°48'3 6.8
2017-Jun-30 05:30N 38°17' E 014°44'3 6.9
2017-Jun-30 05:00N 38°17' E 014°39'5 7.1
2017-Jun-30 04:18N 38°17' E 014°33'2 7.0
2017-Jun-30 03:59N 38°17' E 014°30'4 6.8
2017-Jun-30 03:24N 38°17' E 014°25'28 6.7
2017-Jun-29 23:09N 38°15' E 013°49'2 6.6
2017-Jun-29 22:53N 38°16' E 013°46'3 6.7
2017-Jun-29 22:27N 38°17' E 013°43'3 6.8
2017-Jun-29 21:57N 38°18' E 013°39'3 6.9
2017-Jun-29 21:31N 38°20' E 013°36'4 7.3
2017-Jun-29 21:00N 38°21' E 013°31'4 7.3
2017-Jun-29 20:30N 38°21' E 013°27'4 7.6
2017-Jun-29 20:01N 38°22' E 013°22'6 7.9
2017-Jun-29 19:15N 38°25' E 013°15'2 7.9
2017-Jun-29 19:00N 38°26' E 013°13'5 7.5
2017-Jun-29 18:20N 38°28' E 013°07'19 7.3
2017-Jun-29 15:44N 38°35' E 012°44'2 7.5
2017-Jun-29 15:27N 38°36' E 012°42'3 7.6
2017-Jun-29 15:01N 38°37' E 012°38'4 7.5
2017-Jun-29 14:31N 38°39' E 012°34'  

Dump ship's entire track history